createdAt,value
2017-07-31T00:01:36.220Z,95715.77
2017-07-31T00:04:03.834Z,95724.98
2017-07-31T00:06:31.476Z,95714.80
2017-07-31T00:08:59.104Z,95719.88
2017-07-31T00:11:26.711Z,95718.94
2017-07-31T00:13:54.458Z,95712.63
2017-07-31T00:16:22.095Z,95713.25
2017-07-31T00:18:49.728Z,95713.85
2017-07-31T00:21:17.342Z,95712.31
2017-07-31T00:23:44.999Z,95704.45
2017-07-31T00:26:13.234Z,95711.32
2017-07-31T00:28:40.986Z,95714.08
2017-07-31T00:31:08.727Z,95710.72
2017-07-31T00:33:36.348Z,95715.88
2017-07-31T00:36:03.966Z,95706.25
2017-07-31T00:38:31.649Z,95708.19
2017-07-31T00:40:59.535Z,95709.98
2017-07-31T00:43:27.192Z,95705.66
2017-07-31T00:45:54.889Z,95710.78
2017-07-31T00:48:22.493Z,95721.58
2017-07-31T00:50:50.254Z,95717.45
2017-07-31T00:53:17.845Z,95710.98
2017-07-31T00:55:45.897Z,95719.03
2017-07-31T00:58:13.543Z,95718.23
2017-07-31T01:00:42.555Z,95717.44
2017-07-31T01:03:10.464Z,95722.57
2017-07-31T01:05:38.023Z,95718.23
2017-07-31T01:08:05.590Z,95718.84
2017-07-31T01:10:33.394Z,95721.38
2017-07-31T01:13:01.143Z,95721.59
2017-07-31T01:15:28.786Z,95718.85
2017-07-31T01:17:56.377Z,95709.61
2017-07-31T01:20:25.592Z,95706.09
2017-07-31T01:22:53.268Z,95701.36
2017-07-31T01:25:20.885Z,95705.48
2017-07-31T01:27:48.499Z,95700.38
2017-07-31T01:30:16.102Z,95702.13
2017-07-31T01:32:43.707Z,95709.39
2017-07-31T01:35:11.295Z,95706.83
2017-07-31T01:37:39.006Z,95709.56
2017-07-31T01:40:06.939Z,95712.13
2017-07-31T01:42:35.118Z,95709.38
2017-07-31T01:45:02.740Z,95706.85
2017-07-31T01:47:30.367Z,95709.79
2017-07-31T01:49:57.992Z,95715.66
2017-07-31T01:52:25.602Z,95715.64
2017-07-31T01:54:53.203Z,95708.00
2017-07-31T01:57:21.356Z,95711.74
2017-07-31T01:59:49.338Z,95708.80
2017-07-31T02:02:16.934Z,95711.34
2017-07-31T02:04:44.514Z,95716.05
2017-07-31T02:07:12.285Z,95714.84
2017-07-31T02:09:39.853Z,95712.86
2017-07-31T02:12:08.295Z,95710.13
2017-07-31T02:14:35.909Z,95716.98
2017-07-31T02:17:03.591Z,95716.03
2017-07-31T02:19:31.214Z,95724.47
2017-07-31T02:21:59.026Z,95720.73
2017-07-31T02:24:26.574Z,95716.05
2017-07-31T02:26:54.142Z,95719.56
2017-07-31T02:29:21.751Z,95724.28
2017-07-31T02:31:49.334Z,95722.30
2017-07-31T02:34:16.939Z,95718.59
2017-07-31T02:36:44.580Z,95723.06
2017-07-31T02:39:12.190Z,95721.50
2017-07-31T02:41:39.797Z,95725.22
2017-07-31T02:44:07.379Z,95729.13
2017-07-31T02:46:34.965Z,95734.80
2017-07-31T02:49:03.448Z,95732.87
2017-07-31T02:51:31.069Z,95731.72
2017-07-31T02:53:58.716Z,95737.17
2017-07-31T02:56:26.298Z,95742.66
2017-07-31T02:58:54.115Z,95742.99
2017-07-31T03:01:21.690Z,95745.02
2017-07-31T03:03:49.246Z,95741.30
2017-07-31T03:06:20.647Z,95744.42
2017-07-31T03:08:48.300Z,95749.30
2017-07-31T03:11:15.895Z,95744.92
2017-07-31T03:13:43.526Z,95756.11
2017-07-31T03:16:11.133Z,95761.35
2017-07-31T03:18:38.719Z,95755.28
2017-07-31T03:21:06.501Z,95758.19
2017-07-31T03:23:34.116Z,95757.21
2017-07-31T03:26:02.214Z,95766.81
2017-07-31T03:28:29.785Z,95767.20
2017-07-31T03:30:57.753Z,95764.67
2017-07-31T03:33:25.518Z,95767.42
2017-07-31T03:35:53.385Z,95773.84
2017-07-31T03:38:21.186Z,95774.39
2017-07-31T03:40:48.794Z,95774.36
2017-07-31T03:43:16.405Z,95780.60
2017-07-31T03:45:44.006Z,95780.45
2017-07-31T03:48:11.586Z,95777.71
2017-07-31T03:50:39.164Z,95787.16
2017-07-31T03:53:06.755Z,95785.80
2017-07-31T03:55:34.544Z,95782.62
2017-07-31T03:58:02.325Z,95789.30
2017-07-31T04:00:30.043Z,95781.17
2017-07-31T04:02:57.653Z,95783.66
2017-07-31T04:05:25.241Z,95785.28
2017-07-31T04:07:52.997Z,95799.43
2017-07-31T04:10:20.765Z,95793.29
2017-07-31T04:12:48.335Z,95793.55
2017-07-31T04:15:15.946Z,95798.28
2017-07-31T04:17:43.487Z,95796.69
2017-07-31T04:20:11.119Z,95795.54
2017-07-31T04:22:38.702Z,95785.94
2017-07-31T04:25:06.279Z,95798.53
2017-07-31T04:27:34.084Z,95802.28
2017-07-31T04:30:01.707Z,95800.94
2017-07-31T04:32:29.293Z,95800.63
2017-07-31T04:34:56.862Z,95802.80
2017-07-31T04:37:24.466Z,95805.70
2017-07-31T04:39:52.069Z,95803.59
2017-07-31T04:42:19.715Z,95805.20
2017-07-31T04:44:47.328Z,95801.66
2017-07-31T04:47:14.918Z,95805.30
2017-07-31T04:49:43.266Z,95798.10
2017-07-31T04:52:10.813Z,95802.95
2017-07-31T04:54:38.451Z,95801.61
2017-07-31T04:57:05.985Z,95804.38
2017-07-31T04:59:33.510Z,95805.75
2017-07-31T05:02:02.003Z,95804.80
2017-07-31T05:04:29.582Z,95813.08
2017-07-31T05:06:57.107Z,95818.78
2017-07-31T05:09:24.677Z,95814.69
2017-07-31T05:11:52.409Z,95815.84
2017-07-31T05:14:20.306Z,95810.39
2017-07-31T05:16:47.915Z,95811.41
2017-07-31T05:19:15.474Z,95816.19
2017-07-31T05:21:43.091Z,95811.69
2017-07-31T05:24:10.657Z,95811.46
2017-07-31T05:26:38.202Z,95810.83
2017-07-31T05:29:05.762Z,95816.76
2017-07-31T05:31:33.345Z,95815.97
2017-07-31T05:34:00.927Z,95817.91
2017-07-31T05:36:28.506Z,95812.12
2017-07-31T05:38:56.092Z,95807.84
2017-07-31T05:41:23.680Z,95810.83
2017-07-31T05:43:51.250Z,95810.89
2017-07-31T05:46:18.859Z,95808.44
2017-07-31T05:48:46.639Z,95804.89
2017-07-31T05:51:14.230Z,95803.70
2017-07-31T05:53:41.834Z,95804.69
2017-07-31T05:56:09.428Z,95799.34
2017-07-31T05:58:37.015Z,95801.32
2017-07-31T06:01:04.658Z,95801.38
2017-07-31T06:03:32.174Z,95792.05
2017-07-31T06:05:59.753Z,95804.54
2017-07-31T06:08:27.372Z,95797.16
2017-07-31T06:10:54.946Z,95794.44
2017-07-31T06:13:22.707Z,95787.02
2017-07-31T06:15:50.305Z,95788.33
2017-07-31T06:18:17.895Z,95790.12
2017-07-31T06:20:45.482Z,95796.02
2017-07-31T06:23:13.110Z,95792.13
2017-07-31T06:25:40.715Z,95786.13
2017-07-31T06:28:08.531Z,95783.53
2017-07-31T06:30:36.159Z,95792.91
2017-07-31T06:33:03.686Z,95788.11
2017-07-31T06:35:31.311Z,95794.95
2017-07-31T06:37:58.894Z,95784.63
2017-07-31T06:40:26.458Z,95773.66
2017-07-31T06:42:54.095Z,95780.88
2017-07-31T06:45:21.668Z,95773.23
2017-07-31T06:47:49.202Z,95776.20
2017-07-31T06:50:16.769Z,95764.16
2017-07-31T06:52:44.373Z,95768.55
2017-07-31T06:55:11.986Z,95766.50
2017-07-31T06:57:40.422Z,95766.11
2017-07-31T07:00:08.489Z,95764.78
2017-07-31T07:02:36.107Z,95759.88
2017-07-31T07:05:03.657Z,95769.09
2017-07-31T07:07:31.266Z,95758.69
2017-07-31T07:09:58.833Z,95755.09
2017-07-31T07:12:26.434Z,95761.27
2017-07-31T07:14:54.053Z,95767.76
2017-07-31T07:17:21.657Z,95764.80
2017-07-31T07:19:49.404Z,95777.04
2017-07-31T07:22:17.018Z,95763.64
2017-07-31T07:24:44.613Z,95774.40
2017-07-31T07:27:12.210Z,95768.73
2017-07-31T07:29:39.850Z,95768.92
2017-07-31T07:32:07.491Z,95766.16
2017-07-31T07:34:35.081Z,95761.86
2017-07-31T07:37:02.838Z,95770.97
2017-07-31T07:39:30.495Z,95769.19
2017-07-31T07:41:58.069Z,95765.23
2017-07-31T07:44:25.859Z,95757.97
2017-07-31T07:46:53.485Z,95761.32
2017-07-31T07:49:21.098Z,95767.25
2017-07-31T07:51:48.866Z,95761.07
2017-07-31T07:54:16.468Z,95754.87
2017-07-31T07:56:44.029Z,95750.93
2017-07-31T07:59:11.571Z,95744.83
2017-07-31T08:01:39.186Z,95749.91
2017-07-31T08:04:06.782Z,95746.75
2017-07-31T08:06:34.522Z,95748.44
2017-07-31T08:09:02.092Z,95747.19
2017-07-31T08:11:29.745Z,95748.34
2017-07-31T08:13:57.492Z,95740.72
2017-07-31T08:16:25.081Z,95734.64
2017-07-31T08:18:53.016Z,95737.02
2017-07-31T08:21:20.613Z,95727.66
2017-07-31T08:23:48.689Z,95734.07
2017-07-31T08:26:16.252Z,95729.39
2017-07-31T08:28:43.771Z,95733.55
2017-07-31T08:31:11.410Z,95725.02
2017-07-31T08:33:39.299Z,95720.23
2017-07-31T08:36:06.846Z,95718.84
2017-07-31T08:38:34.449Z,95727.05
2017-07-31T08:41:02.233Z,95729.23
2017-07-31T08:43:29.789Z,95727.83
2017-07-31T08:45:57.370Z,95717.61
2017-07-31T08:48:24.965Z,95714.22
2017-07-31T08:50:52.713Z,95714.14
2017-07-31T08:53:20.315Z,95703.08
2017-07-31T08:55:47.850Z,95711.25
2017-07-31T08:58:15.492Z,95706.03
2017-07-31T09:00:43.270Z,95713.90
2017-07-31T09:03:11.112Z,95711.30
2017-07-31T09:05:38.673Z,95704.73
2017-07-31T09:08:06.495Z,95705.64
2017-07-31T09:10:34.051Z,95696.75
2017-07-31T09:13:01.809Z,95698.70
2017-07-31T09:15:30.178Z,95700.58
2017-07-31T09:17:57.795Z,95697.14
2017-07-31T09:20:25.987Z,95694.01
2017-07-31T09:22:53.587Z,95686.84
2017-07-31T09:25:21.193Z,95688.02
2017-07-31T09:27:48.726Z,95698.23
2017-07-31T09:30:16.412Z,95692.86
2017-07-31T09:32:44.001Z,95691.91
2017-07-31T09:35:12.401Z,95694.94
2017-07-31T09:37:40.036Z,95685.06
2017-07-31T09:40:07.573Z,95687.06
2017-07-31T09:42:35.152Z,95681.30
2017-07-31T09:45:02.786Z,95689.23
2017-07-31T09:47:31.238Z,95686.68
2017-07-31T09:49:58.813Z,95688.06
2017-07-31T09:52:26.396Z,95683.84
2017-07-31T09:54:54.160Z,95682.25
2017-07-31T09:57:21.764Z,95680.53
2017-07-31T09:59:49.346Z,95684.93
2017-07-31T10:02:16.918Z,95681.70
2017-07-31T10:04:44.753Z,95678.52
2017-07-31T10:07:12.606Z,95668.12
2017-07-31T10:09:41.160Z,95672.30
2017-07-31T10:12:08.701Z,95680.63
2017-07-31T10:14:36.445Z,95678.86
2017-07-31T10:17:04.053Z,95678.45
2017-07-31T10:19:31.639Z,95682.52
2017-07-31T10:21:59.186Z,95678.87
2017-07-31T10:24:27.259Z,95676.04
2017-07-31T10:26:54.797Z,95675.39
2017-07-31T10:29:22.342Z,95667.16
2017-07-31T10:31:49.994Z,95677.73
2017-07-31T10:34:18.147Z,95675.59
2017-07-31T10:36:45.723Z,95674.14
2017-07-31T10:39:13.291Z,95670.20
2017-07-31T10:41:40.889Z,95656.85
2017-07-31T10:44:08.447Z,95662.07
2017-07-31T10:46:36.023Z,95669.97
2017-07-31T10:49:03.601Z,95664.50
2017-07-31T10:51:31.342Z,95658.61
2017-07-31T10:53:58.951Z,95657.96
2017-07-31T10:56:26.732Z,95655.20
2017-07-31T10:58:54.302Z,95646.02
2017-07-31T11:01:21.907Z,95653.08
2017-07-31T11:03:50.019Z,95645.97
2017-07-31T11:06:17.591Z,95642.91
2017-07-31T11:08:45.371Z,95638.47
2017-07-31T11:11:12.905Z,95639.52
2017-07-31T11:13:40.486Z,95654.59
2017-07-31T11:16:08.087Z,95633.06
2017-07-31T11:18:35.633Z,95632.52
2017-07-31T11:21:03.161Z,95631.41
2017-07-31T11:23:30.796Z,95630.41
2017-07-31T11:25:58.594Z,95631.36
2017-07-31T11:28:26.210Z,95624.44
2017-07-31T11:30:53.774Z,95630.34
2017-07-31T11:33:21.419Z,95626.30
2017-07-31T11:35:49.031Z,95621.95
2017-07-31T11:38:16.623Z,95617.81
2017-07-31T11:40:44.172Z,95603.47
2017-07-31T11:43:11.752Z,95624.34
2017-07-31T11:45:39.363Z,95619.47
2017-07-31T11:48:06.886Z,95620.94
2017-07-31T11:50:34.473Z,95618.18
2017-07-31T11:53:02.071Z,95621.47
2017-07-31T11:55:29.646Z,95623.95
2017-07-31T11:57:57.190Z,95617.10
2017-07-31T12:00:24.779Z,95611.66
2017-07-31T12:02:52.311Z,95618.17
2017-07-31T12:05:20.058Z,95620.11
2017-07-31T12:07:47.607Z,95608.13
2017-07-31T12:10:15.158Z,95604.73
2017-07-31T12:12:42.736Z,95610.22
2017-07-31T12:15:10.366Z,95598.58
2017-07-31T12:17:38.845Z,95606.25
2017-07-31T12:20:06.405Z,95609.98
2017-07-31T12:22:34.000Z,95613.58
2017-07-31T12:25:01.512Z,95596.09
2017-07-31T12:27:29.263Z,95602.66
2017-07-31T12:29:56.886Z,95597.70
2017-07-31T12:32:24.466Z,95594.84
2017-07-31T12:34:52.003Z,95595.00
2017-07-31T12:37:19.565Z,95592.83
2017-07-31T12:39:47.142Z,95596.03
2017-07-31T12:42:14.662Z,95583.66
2017-07-31T12:44:42.420Z,95597.86
2017-07-31T12:47:10.005Z,95598.06
2017-07-31T12:49:37.912Z,95599.12
2017-07-31T12:52:05.515Z,95583.91
2017-07-31T12:54:33.288Z,95585.70
2017-07-31T12:57:01.128Z,95593.05
2017-07-31T12:59:28.928Z,95605.50
2017-07-31T13:01:56.502Z,95587.53
2017-07-31T13:04:24.246Z,95593.61
2017-07-31T13:06:51.829Z,95594.23
2017-07-31T13:09:19.425Z,95590.73
2017-07-31T13:11:46.990Z,95582.22
2017-07-31T13:14:14.781Z,95585.10
2017-07-31T13:16:42.378Z,95594.91
2017-07-31T13:19:09.935Z,95588.69
2017-07-31T13:21:37.781Z,95586.04
2017-07-31T13:24:05.378Z,95588.44
2017-07-31T13:26:33.167Z,95599.95
2017-07-31T13:29:00.902Z,95590.52
2017-07-31T13:31:28.883Z,95596.41
2017-07-31T13:33:56.691Z,95592.69
2017-07-31T13:36:24.797Z,95592.24
2017-07-31T13:38:52.406Z,95595.21
2017-07-31T13:41:19.995Z,95595.16
2017-07-31T13:43:47.545Z,95591.54
2017-07-31T13:46:15.450Z,95594.27
2017-07-31T13:48:42.989Z,95594.93
2017-07-31T13:51:10.798Z,95595.58
2017-07-31T13:53:38.419Z,95589.59
2017-07-31T13:56:05.998Z,95599.70
2017-07-31T13:58:34.186Z,95594.11
2017-07-31T14:01:01.872Z,95595.39
2017-07-31T14:03:29.450Z,95589.92
2017-07-31T14:05:56.986Z,95593.48
2017-07-31T14:08:24.609Z,95589.63
2017-07-31T14:10:52.121Z,95596.05
2017-07-31T14:13:19.681Z,95603.73
2017-07-31T14:15:47.310Z,95590.99
2017-07-31T14:18:14.899Z,95599.76
2017-07-31T14:20:42.462Z,95590.84
2017-07-31T14:23:10.934Z,95601.48
2017-07-31T14:25:38.885Z,95590.59
2017-07-31T14:28:06.604Z,95594.87
2017-07-31T14:30:34.575Z,95595.25
2017-07-31T14:33:02.145Z,95589.42
2017-07-31T14:35:29.699Z,95597.34
2017-07-31T14:37:57.327Z,95599.67
2017-07-31T14:40:25.147Z,95594.18
2017-07-31T14:42:52.722Z,95603.20
2017-07-31T14:45:20.344Z,95602.19
2017-07-31T14:47:48.093Z,95601.25
2017-07-31T14:50:15.850Z,95597.62
2017-07-31T14:52:43.448Z,95601.66
2017-07-31T14:55:11.033Z,95599.47
2017-07-31T14:57:38.801Z,95598.39
2017-07-31T15:00:07.679Z,95604.91
2017-07-31T15:02:35.427Z,95601.82
2017-07-31T15:05:02.967Z,95606.31
2017-07-31T15:07:30.545Z,95605.57
2017-07-31T15:09:58.071Z,95603.91
2017-07-31T15:12:25.622Z,95604.70
2017-07-31T15:14:53.247Z,95603.84
2017-07-31T15:17:20.845Z,95610.89
2017-07-31T15:19:48.630Z,95606.80
2017-07-31T15:22:16.205Z,95614.00
2017-07-31T15:24:43.839Z,95601.66
2017-07-31T15:27:11.446Z,95602.58
2017-07-31T15:29:39.175Z,95602.05
2017-07-31T15:32:06.758Z,95603.05
2017-07-31T15:34:34.289Z,95598.70
2017-07-31T15:37:01.815Z,95596.21
2017-07-31T15:39:29.386Z,95595.68
2017-07-31T15:41:56.904Z,95597.47
2017-07-31T15:44:24.737Z,95605.84
2017-07-31T15:46:52.324Z,95604.36
2017-07-31T15:49:20.067Z,95614.72
2017-07-31T15:51:47.828Z,95598.96
2017-07-31T15:54:15.429Z,95607.64
2017-07-31T15:56:43.913Z,95609.11
2017-07-31T15:59:11.657Z,95608.23
2017-07-31T16:01:39.254Z,95602.64
2017-07-31T16:04:06.847Z,95606.63
2017-07-31T16:06:34.427Z,95613.66
2017-07-31T16:09:02.063Z,95610.09
2017-07-31T16:11:29.654Z,95615.61
2017-07-31T16:13:57.270Z,95617.71
2017-07-31T16:16:24.853Z,95620.27
2017-07-31T16:18:52.409Z,95615.16
2017-07-31T16:21:19.937Z,95612.41
2017-07-31T16:23:48.152Z,95618.09
2017-07-31T16:26:15.705Z,95618.73
2017-07-31T16:28:43.280Z,95615.02
2017-07-31T16:31:10.851Z,95611.56
2017-07-31T16:33:38.466Z,95616.09
2017-07-31T16:36:06.026Z,95619.83
2017-07-31T16:38:38.633Z,95619.84
2017-07-31T16:41:06.385Z,95620.70
2017-07-31T16:43:54.818Z,95624.76
2017-07-31T16:46:25.449Z,95627.52
2017-07-31T16:49:05.825Z,95619.37
2017-07-31T16:51:33.410Z,95631.42
2017-07-31T16:54:01.019Z,95624.73
2017-07-31T16:56:28.584Z,95634.54
2017-07-31T16:58:56.209Z,95633.22
2017-07-31T17:01:23.807Z,95638.94
2017-07-31T17:03:51.347Z,95636.80
2017-07-31T17:06:19.203Z,95644.48
2017-07-31T17:08:46.819Z,95646.58
2017-07-31T17:11:14.358Z,95647.08
2017-07-31T17:13:41.903Z,95651.59
2017-07-31T17:16:09.473Z,95656.77
2017-07-31T17:18:37.257Z,95664.34
2017-07-31T17:21:04.835Z,95662.06
2017-07-31T17:23:32.412Z,95654.61
2017-07-31T17:26:00.360Z,95656.89
2017-07-31T17:28:27.888Z,95657.47
2017-07-31T17:30:55.501Z,95671.13
2017-07-31T17:33:23.325Z,95673.42
2017-07-31T17:35:51.127Z,95681.58
2017-07-31T17:38:18.738Z,95676.53
2017-07-31T17:40:46.314Z,95681.67
2017-07-31T17:43:13.865Z,95683.14
2017-07-31T17:45:41.445Z,95690.28
2017-07-31T17:48:09.031Z,95693.36
2017-07-31T17:50:36.583Z,95698.34
2017-07-31T17:53:04.154Z,95699.02
2017-07-31T17:55:31.734Z,95704.11
2017-07-31T17:57:59.350Z,95693.97
2017-07-31T18:00:27.029Z,95702.46
2017-07-31T18:02:54.569Z,95704.70
2017-07-31T18:05:22.156Z,95711.30
2017-07-31T18:07:49.764Z,95708.00
2017-07-31T18:10:17.296Z,95708.90
2017-07-31T18:12:44.851Z,95718.80
2017-07-31T18:15:12.433Z,95721.32
2017-07-31T18:17:40.006Z,95722.12
2017-07-31T18:20:07.597Z,95726.60
2017-07-31T18:22:35.206Z,95728.96
2017-07-31T18:25:02.731Z,95723.83
2017-07-31T18:27:30.271Z,95732.02
2017-07-31T18:29:58.654Z,95730.41
2017-07-31T18:32:26.252Z,95744.01
2017-07-31T18:34:53.827Z,95742.44
2017-07-31T18:37:21.971Z,95750.98
2017-07-31T18:39:49.613Z,95749.95
2017-07-31T18:42:17.161Z,95757.38
2017-07-31T18:44:44.946Z,95761.95
2017-07-31T18:47:12.540Z,95762.03
2017-07-31T18:49:40.130Z,95767.92
2017-07-31T18:52:07.942Z,95763.98
2017-07-31T18:54:35.995Z,95763.52
2017-07-31T18:57:03.780Z,95775.64
2017-07-31T18:59:31.496Z,95771.09
2017-07-31T19:01:59.260Z,95775.10
2017-07-31T19:04:26.944Z,95773.92
2017-07-31T19:06:54.753Z,95780.20
2017-07-31T19:09:22.429Z,95782.05
2017-07-31T19:11:50.736Z,95777.82
2017-07-31T19:14:18.841Z,95778.20
2017-07-31T19:16:46.817Z,95780.53
2017-07-31T19:19:15.541Z,95778.09
2017-07-31T19:21:43.369Z,95784.94
2017-07-31T19:24:11.525Z,95784.78
2017-07-31T19:26:39.479Z,95791.91
2017-07-31T19:29:07.383Z,95791.10
2017-07-31T19:31:35.345Z,95792.98
2017-07-31T19:34:03.000Z,95796.89
2017-07-31T19:36:30.873Z,95795.55
2017-07-31T19:38:58.641Z,95792.72
2017-07-31T19:41:26.319Z,95796.77
2017-07-31T19:43:54.026Z,95798.99
2017-07-31T19:46:21.938Z,95797.59
2017-07-31T19:48:49.607Z,95805.95
2017-07-31T19:51:17.491Z,95808.56
2017-07-31T19:53:45.368Z,95807.19
2017-07-31T19:56:13.053Z,95810.80
2017-07-31T19:58:40.858Z,95813.84
2017-07-31T20:01:08.710Z,95814.44
2017-07-31T20:03:36.507Z,95818.14
2017-07-31T20:06:04.143Z,95809.84
2017-07-31T20:08:32.193Z,95819.73
2017-07-31T20:10:59.992Z,95827.44
2017-07-31T20:13:28.534Z,95823.41
2017-07-31T20:15:56.452Z,95818.53
2017-07-31T20:18:24.141Z,95830.13
2017-07-31T20:20:51.940Z,95834.55
2017-07-31T20:23:19.583Z,95828.23
2017-07-31T20:25:47.150Z,95828.49
2017-07-31T20:28:15.652Z,95825.86
2017-07-31T20:30:43.421Z,95829.52
2017-07-31T20:33:11.071Z,95831.66
2017-07-31T20:35:38.626Z,95829.18
2017-07-31T20:38:06.215Z,95828.09
2017-07-31T20:40:34.788Z,95829.08
2017-07-31T20:43:02.428Z,95824.44
2017-07-31T20:45:30.475Z,95828.55
2017-07-31T20:47:58.094Z,95827.83
2017-07-31T20:50:25.896Z,95828.36
2017-07-31T20:52:53.550Z,95831.62
2017-07-31T20:55:21.154Z,95826.98
2017-07-31T20:57:48.722Z,95829.88
2017-07-31T21:00:16.359Z,95824.41
2017-07-31T21:02:44.704Z,95834.77
2017-07-31T21:05:12.321Z,95834.45
2017-07-31T21:07:39.947Z,95838.98
2017-07-31T21:10:07.502Z,95834.61
2017-07-31T21:12:35.136Z,95835.82
2017-07-31T21:15:03.956Z,95834.08
2017-07-31T21:17:31.696Z,95834.76
2017-07-31T21:19:59.262Z,95834.00
2017-07-31T21:22:26.845Z,95838.38
2017-07-31T21:24:54.446Z,95836.48
2017-07-31T21:27:22.449Z,95840.82
2017-07-31T21:29:50.046Z,95843.91
2017-07-31T21:32:17.622Z,95843.52
2017-07-31T21:34:45.210Z,95847.06
2017-07-31T21:37:12.769Z,95844.52
2017-07-31T21:39:40.411Z,95846.03
2017-07-31T21:42:07.971Z,95841.49
2017-07-31T21:44:35.568Z,95849.05
2017-07-31T21:47:03.130Z,95847.50
2017-07-31T21:49:30.795Z,95849.31
2017-07-31T21:51:58.419Z,95856.98
2017-07-31T21:54:26.071Z,95854.06
2017-07-31T21:56:53.612Z,95853.56
2017-07-31T21:59:21.250Z,95863.45
2017-07-31T22:01:49.673Z,95863.75
2017-07-31T22:04:17.225Z,95871.28
2017-07-31T22:06:44.808Z,95864.20
2017-07-31T22:09:12.379Z,95881.00
2017-07-31T22:11:39.922Z,95878.81
2017-07-31T22:14:07.735Z,95870.36
2017-07-31T22:16:41.794Z,95873.39
2017-07-31T22:19:09.409Z,95867.52
2017-07-31T22:21:42.649Z,95875.20
2017-07-31T22:24:10.248Z,95878.78
2017-07-31T22:26:37.955Z,95877.99
2017-07-31T22:29:05.509Z,95887.83
2017-07-31T22:31:33.086Z,95889.23
2017-07-31T22:34:01.678Z,95894.94
2017-07-31T22:36:29.444Z,95891.80
2017-07-31T22:38:57.009Z,95887.05
2017-07-31T22:41:24.626Z,95885.50
2017-07-31T22:43:52.175Z,95887.86
2017-07-31T22:46:19.767Z,95890.63
2017-07-31T22:48:47.506Z,95888.64
2017-07-31T22:51:15.253Z,95895.94
2017-07-31T22:53:42.856Z,95898.66
2017-07-31T22:56:10.466Z,95891.22
2017-07-31T22:58:38.317Z,95899.84
2017-07-31T23:01:05.935Z,95895.33
2017-07-31T23:03:33.515Z,95904.75
2017-07-31T23:06:01.074Z,95903.97
2017-07-31T23:08:28.641Z,95905.72
2017-07-31T23:10:56.239Z,95911.03
2017-07-31T23:13:23.993Z,95901.18
2017-07-31T23:15:51.573Z,95911.40
2017-07-31T23:18:19.142Z,95915.31
2017-07-31T23:20:46.691Z,95912.54
2017-07-31T23:23:14.274Z,95904.88
2017-07-31T23:25:42.068Z,95909.14
2017-07-31T23:28:09.626Z,95913.26
2017-07-31T23:30:37.258Z,95912.12
2017-07-31T23:33:04.845Z,95910.28
2017-07-31T23:35:32.633Z,95908.91
2017-07-31T23:38:00.263Z,95911.84
2017-07-31T23:40:27.838Z,95916.58
2017-07-31T23:42:55.380Z,95900.06
2017-07-31T23:45:23.206Z,95908.15
2017-07-31T23:47:50.971Z,95915.19
2017-07-31T23:50:18.490Z,95909.78
2017-07-31T23:52:46.849Z,95909.61
2017-07-31T23:55:14.609Z,95910.98
2017-07-31T23:57:42.246Z,95905.08
